sensor_id;sensor_type;location;lat;lon;timestamp;pressure;altitude;pressure_sealevel;temperature;humidity
50977;BME280;36992;48.200;12.418;2022-08-19T00:00:37;96197.09;;;25.57;45.60
50977;BME280;36992;48.200;12.418;2022-08-19T00:03:04;96203.44;;;25.54;45.65
50977;BME280;36992;48.200;12.418;2022-08-19T00:05:33;96205.78;;;25.55;45.55
50977;BME280;36992;48.200;12.418;2022-08-19T00:08:00;96204.63;;;25.53;45.35
50977;BME280;36992;48.200;12.418;2022-08-19T00:10:26;96196.34;;;25.53;45.32
50977;BME280;36992;48.200;12.418;2022-08-19T00:12:53;96188.47;;;25.55;46.49
50977;BME280;36992;48.200;12.418;2022-08-19T00:15:20;96170.34;;;25.54;46.21
50977;BME280;36992;48.200;12.418;2022-08-19T00:17:48;96166.78;;;25.50;46.68
50977;BME280;36992;48.200;12.418;2022-08-19T00:20:17;96168.00;;;25.45;46.80
50977;BME280;36992;48.200;12.418;2022-08-19T00:22:46;96168.09;;;25.34;46.92
50977;BME280;36992;48.200;12.418;2022-08-19T00:25:13;96167.38;;;25.23;47.32
50977;BME280;36992;48.200;12.418;2022-08-19T00:27:39;96188.28;;;25.16;47.38
50977;BME280;36992;48.200;12.418;2022-08-19T00:30:07;96190.63;;;25.11;47.69
50977;BME280;36992;48.200;12.418;2022-08-19T00:32:35;96189.50;;;25.04;47.16
50977;BME280;36992;48.200;12.418;2022-08-19T00:35:03;96178.50;;;25.01;47.78
50977;BME280;36992;48.200;12.418;2022-08-19T00:37:30;96168.28;;;24.98;47.97
50977;BME280;36992;48.200;12.418;2022-08-19T00:39:59;96180.88;;;24.95;48.04
50977;BME280;36992;48.200;12.418;2022-08-19T00:42:26;96173.44;;;24.88;48.71
50977;BME280;36992;48.200;12.418;2022-08-19T00:44:54;96173.84;;;24.83;48.06
50977;BME280;36992;48.200;12.418;2022-08-19T00:47:20;96160.84;;;24.80;48.71
50977;BME280;36992;48.200;12.418;2022-08-19T00:49:49;96164.41;;;24.77;48.22
50977;BME280;36992;48.200;12.418;2022-08-19T00:52:20;96159.69;;;24.77;48.41
50977;BME280;36992;48.200;12.418;2022-08-19T00:54:47;96152.63;;;24.73;49.26
50977;BME280;36992;48.200;12.418;2022-08-19T00:57:18;96147.13;;;24.73;48.62
50977;BME280;36992;48.200;12.418;2022-08-19T00:59:52;96131.78;;;24.72;48.64
50977;BME280;36992;48.200;12.418;2022-08-19T01:02:20;96127.09;;;24.65;48.92
50977;BME280;36992;48.200;12.418;2022-08-19T01:04:46;96136.16;;;24.62;49.32
50977;BME280;36992;48.200;12.418;2022-08-19T01:07:13;96143.25;;;24.59;48.91
50977;BME280;36992;48.200;12.418;2022-08-19T01:09:39;96133.00;;;24.56;48.90
50977;BME280;36992;48.200;12.418;2022-08-19T01:12:06;96120.84;;;24.54;49.28
50977;BME280;36992;48.200;12.418;2022-08-19T01:14:36;96119.25;;;24.56;48.30
50977;BME280;36992;48.200;12.418;2022-08-19T01:17:05;96121.63;;;24.54;48.43
50977;BME280;36992;48.200;12.418;2022-08-19T01:19:35;96137.75;;;24.59;48.11
50977;BME280;36992;48.200;12.418;2022-08-19T01:22:10;96156.59;;;24.61;48.07
50977;BME280;36992;48.200;12.418;2022-08-19T01:24:39;96166.03;;;24.63;48.20
50977;BME280;36992;48.200;12.418;2022-08-19T01:27:06;96163.69;;;24.65;48.76
50977;BME280;36992;48.200;12.418;2022-08-19T01:29:33;96169.16;;;24.69;48.74
50977;BME280;36992;48.200;12.418;2022-08-19T01:32:00;96171.91;;;24.73;49.15
50977;BME280;36992;48.200;12.418;2022-08-19T01:34:27;96167.97;;;24.74;48.93
50977;BME280;36992;48.200;12.418;2022-08-19T01:36:54;96178.97;;;24.74;48.63
50977;BME280;36992;48.200;12.418;2022-08-19T01:39:23;96182.50;;;24.78;47.92
50977;BME280;36992;48.200;12.418;2022-08-19T01:41:51;96190.38;;;24.76;48.44
50977;BME280;36992;48.200;12.418;2022-08-19T01:44:19;96202.97;;;24.73;49.18
50977;BME280;36992;48.200;12.418;2022-08-19T01:46:50;96181.75;;;24.70;48.63
50977;BME280;36992;48.200;12.418;2022-08-19T01:49:19;96169.16;;;24.69;49.17
50977;BME280;36992;48.200;12.418;2022-08-19T01:51:46;96172.31;;;24.64;48.89
50977;BME280;36992;48.200;12.418;2022-08-19T01:54:14;96175.47;;;24.62;48.77
50977;BME280;36992;48.200;12.418;2022-08-19T01:56:41;96179.03;;;24.59;49.28
50977;BME280;36992;48.200;12.418;2022-08-19T01:59:12;96173.91;;;24.61;49.19
50977;BME280;36992;48.200;12.418;2022-08-19T02:01:39;96168.81;;;24.56;49.62
50977;BME280;36992;48.200;12.418;2022-08-19T02:04:06;96168.03;;;24.52;49.40
50977;BME280;36992;48.200;12.418;2022-08-19T02:06:33;96175.91;;;24.50;49.36
50977;BME280;36992;48.200;12.418;2022-08-19T02:09:00;96173.97;;;24.47;49.66
50977;BME280;36992;48.200;12.418;2022-08-19T02:11:28;96177.47;;;24.47;48.59
50977;BME280;36992;48.200;12.418;2022-08-19T02:13:58;96188.09;;;24.49;49.09
50977;BME280;36992;48.200;12.418;2022-08-19T02:16:26;96186.53;;;24.48;48.83
50977;BME280;36992;48.200;12.418;2022-08-19T02:18:53;96197.16;;;24.49;49.26
50977;BME280;36992;48.200;12.418;2022-08-19T02:21:22;96183.38;;;24.53;48.65
50977;BME280;36992;48.200;12.418;2022-08-19T02:23:50;96180.63;;;24.53;48.92
50977;BME280;36992;48.200;12.418;2022-08-19T02:26:17;96186.50;;;24.55;48.91
50977;BME280;36992;48.200;12.418;2022-08-19T02:28:43;96191.22;;;24.58;49.60
50977;BME280;36992;48.200;12.418;2022-08-19T02:31:11;96199.47;;;24.58;49.27
50977;BME280;36992;48.200;12.418;2022-08-19T02:33:39;96205.38;;;24.60;48.95
50977;BME280;36992;48.200;12.418;2022-08-19T02:36:07;96197.13;;;24.60;48.80
50977;BME280;36992;48.200;12.418;2022-08-19T02:38:34;96183.34;;;24.60;49.05
50977;BME280;36992;48.200;12.418;2022-08-19T02:41:04;96180.59;;;24.64;48.38
50977;BME280;36992;48.200;12.418;2022-08-19T02:43:33;96183.34;;;24.64;48.86
50977;BME280;36992;48.200;12.418;2022-08-19T02:46:01;96179.41;;;24.65;47.92
50977;BME280;36992;48.200;12.418;2022-08-19T02:48:28;96174.69;;;24.65;47.99
50977;BME280;36992;48.200;12.418;2022-08-19T02:50:56;96179.38;;;24.69;48.17
50977;BME280;36992;48.200;12.418;2022-08-19T02:53:24;96183.31;;;24.68;48.00
50977;BME280;36992;48.200;12.418;2022-08-19T02:55:51;96188.03;;;24.71;48.37
50977;BME280;36992;48.200;12.418;2022-08-19T02:58:18;96177.81;;;24.71;48.38
50977;BME280;36992;48.200;12.418;2022-08-19T03:00:46;96188.81;;;24.75;48.11
50977;BME280;36992;48.200;12.418;2022-08-19T03:03:13;96185.28;;;24.74;47.56
50977;BME280;36992;48.200;12.418;2022-08-19T03:05:41;96190.38;;;24.76;48.16
50977;BME280;36992;48.200;12.418;2022-08-19T03:08:10;96182.50;;;24.78;47.80
50977;BME280;36992;48.200;12.418;2022-08-19T03:10:41;96181.34;;;24.83;47.35
50977;BME280;36992;48.200;12.418;2022-08-19T03:13:11;96166.00;;;24.78;48.26
50977;BME280;36992;48.200;12.418;2022-08-19T03:15:42;96166.00;;;24.82;48.22
50977;BME280;36992;48.200;12.418;2022-08-19T03:18:10;96162.81;;;24.76;48.35
50977;BME280;36992;48.200;12.418;2022-08-19T03:20:41;96173.06;;;24.79;47.94
50977;BME280;36992;48.200;12.418;2022-08-19T03:23:09;96177.41;;;24.76;48.07
50977;BME280;36992;48.200;12.418;2022-08-19T03:25:37;96184.47;;;24.74;48.95
50977;BME280;36992;48.200;12.418;2022-08-19T03:28:05;96191.19;;;24.73;48.62
50977;BME280;36992;48.200;12.418;2022-08-19T03:30:32;96190.78;;;24.71;48.64
50977;BME280;36992;48.200;12.418;2022-08-19T03:32:58;96200.66;;;24.68;48.20
50977;BME280;36992;48.200;12.418;2022-08-19T03:35:25;96202.59;;;24.68;48.47
50977;BME280;36992;48.200;12.418;2022-08-19T03:37:52;96205.34;;;24.68;48.14
50977;BME280;36992;48.200;12.418;2022-08-19T03:40:20;96216.75;;;24.70;48.28
50977;BME280;36992;48.200;12.418;2022-08-19T03:42:47;96225.81;;;24.70;48.18
50977;BME280;36992;48.200;12.418;2022-08-19T03:45:15;96230.91;;;24.72;48.28
50977;BME280;36992;48.200;12.418;2022-08-19T03:47:41;96231.69;;;24.72;48.51
50977;BME280;36992;48.200;12.418;2022-08-19T03:50:09;96225.00;;;24.73;48.16
50977;BME280;36992;48.200;12.418;2022-08-19T03:52:35;96225.78;;;24.74;48.04
50977;BME280;36992;48.200;12.418;2022-08-19T03:55:03;96221.06;;;24.74;48.20
50977;BME280;36992;48.200;12.418;2022-08-19T03:57:31;96221.84;;;24.75;48.70
50977;BME280;36992;48.200;12.418;2022-08-19T03:59:59;96231.31;;;24.74;48.55
50977;BME280;36992;48.200;12.418;2022-08-19T04:02:25;96242.72;;;24.72;48.63
50977;BME280;36992;48.200;12.418;2022-08-19T04:04:53;96246.25;;;24.73;47.94
50977;BME280;36992;48.200;12.418;2022-08-19T04:07:20;96232.06;;;24.71;48.35
50977;BME280;36992;48.200;12.418;2022-08-19T04:09:46;96221.06;;;24.71;48.30
50977;BME280;36992;48.200;12.418;2022-08-19T04:12:13;96218.31;;;24.71;48.86
50977;BME280;36992;48.200;12.418;2022-08-19T04:14:41;96215.56;;;24.71;49.05
50977;BME280;36992;48.200;12.418;2022-08-19T04:17:07;96216.38;;;24.68;48.32
50977;BME280;36992;48.200;12.418;2022-08-19T04:19:35;96213.25;;;24.65;47.84
50977;BME280;36992;48.200;12.418;2022-08-19T04:22:02;96222.66;;;24.64;49.07
50977;BME280;36992;48.200;12.418;2022-08-19T04:24:29;96229.34;;;24.63;48.51
50977;BME280;36992;48.200;12.418;2022-08-19T04:26:56;96226.59;;;24.63;48.25
50977;BME280;36992;48.200;12.418;2022-08-19T04:29:24;96222.66;;;24.64;48.67
50977;BME280;36992;48.200;12.418;2022-08-19T04:31:54;96219.13;;;24.68;48.99
50977;BME280;36992;48.200;12.418;2022-08-19T04:34:23;96231.31;;;24.67;48.23
50977;BME280;36992;48.200;12.418;2022-08-19T04:36:52;96235.25;;;24.65;48.09
50977;BME280;36992;48.200;12.418;2022-08-19T04:39:21;96236.84;;;24.67;48.16
50977;BME280;36992;48.200;12.418;2022-08-19T04:41:48;96237.59;;;24.67;48.66
50977;BME280;36992;48.200;12.418;2022-08-19T04:44:34;96249.78;;;24.70;48.99
50977;BME280;36992;48.200;12.418;2022-08-19T04:47:03;96246.25;;;24.73;48.42
50977;BME280;36992;48.200;12.418;2022-08-19T04:49:31;96250.19;;;24.72;48.14
50977;BME280;36992;48.200;12.418;2022-08-19T04:51:57;96259.63;;;24.74;49.42
50977;BME280;36992;48.200;12.418;2022-08-19T04:54:24;96253.31;;;24.74;48.75
50977;BME280;36992;48.200;12.418;2022-08-19T04:56:51;96266.72;;;24.75;48.45
50977;BME280;36992;48.200;12.418;2022-08-19T04:59:18;96270.22;;;24.76;48.86
50977;BME280;36992;48.200;12.418;2022-08-19T05:01:46;96273.78;;;24.76;48.17
50977;BME280;36992;48.200;12.418;2022-08-19T05:04:18;96285.63;;;24.81;48.98
50977;BME280;36992;48.200;12.418;2022-08-19T05:06:45;96273.41;;;24.78;47.75
50977;BME280;36992;48.200;12.418;2022-08-19T05:09:12;96276.16;;;24.78;48.04
50977;BME280;36992;48.200;12.418;2022-08-19T05:11:38;96271.41;;;24.78;49.08
50977;BME280;36992;48.200;12.418;2022-08-19T05:14:06;96259.19;;;24.79;48.92
50977;BME280;36992;48.200;12.418;2022-08-19T05:16:33;96250.16;;;24.79;49.15
50977;BME280;36992;48.200;12.418;2022-08-19T05:18:59;96250.16;;;24.79;49.46
50977;BME280;36992;48.200;12.418;2022-08-19T05:21:45;96246.22;;;24.80;48.30
50977;BME280;36992;48.200;12.418;2022-08-19T05:24:30;96248.19;;;24.76;49.69
50977;BME280;36992;48.200;12.418;2022-08-19T05:26:59;96239.56;;;24.74;50.06
50977;BME280;36992;48.200;12.418;2022-08-19T05:29:28;96236.44;;;24.72;49.99
50977;BME280;36992;48.200;12.418;2022-08-19T05:31:57;96241.53;;;24.66;49.16
50977;BME280;36992;48.200;12.418;2022-08-19T05:34:24;96241.53;;;24.62;50.09
50977;BME280;36992;48.200;12.418;2022-08-19T05:36:55;96242.75;;;24.61;49.46
50977;BME280;36992;48.200;12.418;2022-08-19T05:39:25;96231.34;;;24.56;50.74
50977;BME280;36992;48.200;12.418;2022-08-19T05:41:54;96229.00;;;24.50;50.00
50977;BME280;36992;48.200;12.418;2022-08-19T05:44:22;96226.66;;;24.45;50.73
50977;BME280;36992;48.200;12.418;2022-08-19T05:46:49;96230.59;;;24.41;50.59
50977;BME280;36992;48.200;12.418;2022-08-19T05:49:19;96226.66;;;24.38;50.42
50977;BME280;36992;48.200;12.418;2022-08-19T05:51:46;96232.19;;;24.34;50.89
50977;BME280;36992;48.200;12.418;2022-08-19T05:54:14;96223.50;;;24.32;51.48
50977;BME280;36992;48.200;12.418;2022-08-19T05:56:42;96222.75;;;24.28;51.64
50977;BME280;36992;48.200;12.418;2022-08-19T05:59:10;96230.59;;;24.26;51.91
50977;BME280;36992;48.200;12.418;2022-08-19T06:01:38;96227.84;;;24.22;50.85
50977;BME280;36992;48.200;12.418;2022-08-19T06:04:06;96235.72;;;24.20;52.28
50977;BME280;36992;48.200;12.418;2022-08-19T06:06:32;96247.13;;;24.19;52.10
50977;BME280;36992;48.200;12.418;2022-08-19T06:08:59;96246.72;;;24.17;51.78
50977;BME280;36992;48.200;12.418;2022-08-19T06:11:34;96251.03;;;24.21;50.40
50977;BME280;36992;48.200;12.418;2022-08-19T06:14:02;96237.69;;;24.34;49.33
50977;BME280;36992;48.200;12.418;2022-08-19T06:16:29;96243.19;;;24.20;51.07
50977;BME280;36992;48.200;12.418;2022-08-19T06:19:02;96238.09;;;24.18;51.06
50977;BME280;36992;48.200;12.418;2022-08-19T06:21:29;96223.16;;;24.16;51.89
50977;BME280;36992;48.200;12.418;2022-08-19T06:23:57;96226.69;;;24.13;51.94
50977;BME280;36992;48.200;12.418;2022-08-19T06:26:23;96231.78;;;24.10;51.51
50977;BME280;36992;48.200;12.418;2022-08-19T06:28:51;96230.63;;;24.08;51.85
50977;BME280;36992;48.200;12.418;2022-08-19T06:31:21;96222.72;;;24.06;51.55
50977;BME280;36992;48.200;12.418;2022-08-19T06:33:48;96229.41;;;24.02;51.89
50977;BME280;36992;48.200;12.418;2022-08-19T06:36:24;96232.94;;;24.06;51.49
50977;BME280;36992;48.200;12.418;2022-08-19T06:38:52;96234.53;;;24.00;52.21
50977;BME280;36992;48.200;12.418;2022-08-19T06:41:19;96234.91;;;23.98;52.09
50977;BME280;36992;48.200;12.418;2022-08-19T06:43:45;96238.44;;;23.95;51.73
50977;BME280;36992;48.200;12.418;2022-08-19T06:46:16;96239.63;;;23.97;51.71
50977;BME280;36992;48.200;12.418;2022-08-19T06:48:44;96239.22;;;23.92;52.14
50977;BME280;36992;48.200;12.418;2022-08-19T06:51:11;96234.91;;;23.91;52.56
50977;BME280;36992;48.200;12.418;2022-08-19T06:53:40;96239.22;;;23.92;52.42
50977;BME280;36992;48.200;12.418;2022-08-19T06:56:13;96232.16;;;23.91;52.35
50977;BME280;36992;48.200;12.418;2022-08-19T06:58:40;96228.63;;;23.90;52.81
50977;BME280;36992;48.200;12.418;2022-08-19T07:01:07;96229.00;;;23.89;52.27
50977;BME280;36992;48.200;12.418;2022-08-19T07:03:37;96232.16;;;23.91;51.14
50977;BME280;36992;48.200;12.418;2022-08-19T07:06:05;96235.69;;;23.88;52.28
50977;BME280;36992;48.200;12.418;2022-08-19T07:08:33;96232.94;;;23.88;52.51
50977;BME280;36992;48.200;12.418;2022-08-19T07:11:01;96240.00;;;23.89;52.10
50977;BME280;36992;48.200;12.418;2022-08-19T07:13:28;96243.16;;;23.91;51.76
50977;BME280;36992;48.200;12.418;2022-08-19T07:16:03;96227.03;;;23.93;51.94
50977;BME280;36992;48.200;12.418;2022-08-19T07:18:29;96237.25;;;23.96;51.64
50977;BME280;36992;48.200;12.418;2022-08-19T07:21:04;96240.78;;;24.04;51.13
50977;BME280;36992;48.200;12.418;2022-08-19T07:23:31;96235.69;;;24.02;52.70
50977;BME280;36992;48.200;12.418;2022-08-19T07:25:57;96222.72;;;24.06;51.55
50977;BME280;36992;48.200;12.418;2022-08-19T07:28:24;96217.63;;;24.08;51.37
50977;BME280;36992;48.200;12.418;2022-08-19T07:30:51;96207.41;;;24.13;52.11
50977;BME280;36992;48.200;12.418;2022-08-19T07:33:17;96208.22;;;24.13;52.35
50977;BME280;36992;48.200;12.418;2022-08-19T07:35:44;96207.81;;;24.15;52.26
50977;BME280;36992;48.200;12.418;2022-08-19T07:38:12;96203.91;;;24.16;52.45
50977;BME280;36992;48.200;12.418;2022-08-19T07:40:40;96199.97;;;24.17;52.34
50977;BME280;36992;48.200;12.418;2022-08-19T07:43:08;96208.59;;;24.19;52.10
50977;BME280;36992;48.200;12.418;2022-08-19T07:45:35;96203.88;;;24.19;52.09
50977;BME280;36992;48.200;12.418;2022-08-19T07:48:01;96200.72;;;24.21;52.14
50977;BME280;36992;48.200;12.418;2022-08-19T07:50:29;96205.84;;;24.22;52.09
50977;BME280;36992;48.200;12.418;2022-08-19T07:52:55;96200.34;;;24.22;51.87
50977;BME280;36992;48.200;12.418;2022-08-19T07:55:25;96202.31;;;24.25;51.80
50977;BME280;36992;48.200;12.418;2022-08-19T07:57:51;96200.75;;;24.24;52.10
50977;BME280;36992;48.200;12.418;2022-08-19T08:00:19;96194.81;;;24.22;52.50
50977;BME280;36992;48.200;12.418;2022-08-19T08:02:45;96191.31;;;24.22;52.29
50977;BME280;36992;48.200;12.418;2022-08-19T08:05:12;96200.72;;;24.21;52.76
50977;BME280;36992;48.200;12.418;2022-08-19T08:07:56;96203.88;;;24.19;52.15
50977;BME280;36992;48.200;12.418;2022-08-19T08:10:41;96209.78;;;24.21;52.82
50977;BME280;36992;48.200;12.418;2022-08-19T08:13:08;96203.47;;;24.21;52.73
50977;BME280;36992;48.200;12.418;2022-08-19T08:15:35;96209.38;;;24.23;51.48
50977;BME280;36992;48.200;12.418;2022-08-19T08:18:03;96216.44;;;24.28;52.36
50977;BME280;36992;48.200;12.418;2022-08-19T08:20:30;96220.38;;;24.30;52.63
50977;BME280;36992;48.200;12.418;2022-08-19T08:22:56;96219.56;;;24.33;52.55
50977;BME280;36992;48.200;12.418;2022-08-19T08:25:42;96225.09;;;24.37;52.42
50977;BME280;36992;48.200;12.418;2022-08-19T08:28:08;96225.88;;;24.37;51.53
50977;BME280;36992;48.200;12.418;2022-08-19T08:30:35;96232.16;;;24.42;51.65
50977;BME280;36992;48.200;12.418;2022-08-19T08:33:06;96233.34;;;24.44;51.65
50977;BME280;36992;48.200;12.418;2022-08-19T08:35:33;96233.31;;;24.48;51.16
50977;BME280;36992;48.200;12.418;2022-08-19T08:37:59;96233.72;;;24.50;50.65
50977;BME280;36992;48.200;12.418;2022-08-19T08:40:29;96237.63;;;24.56;51.16
50977;BME280;36992;48.200;12.418;2022-08-19T08:43:06;96238.41;;;24.60;50.66
50977;BME280;36992;48.200;12.418;2022-08-19T08:45:35;96243.91;;;24.60;50.84
50977;BME280;36992;48.200;12.418;2022-08-19T08:48:10;96241.94;;;24.64;50.79
50977;BME280;36992;48.200;12.418;2022-08-19T08:50:42;96236.41;;;24.64;51.66
50977;BME280;36992;48.200;12.418;2022-08-19T08:53:17;96247.44;;;24.68;51.54
50977;BME280;36992;48.200;12.418;2022-08-19T08:55:46;96242.34;;;24.63;53.48
50977;BME280;36992;48.200;12.418;2022-08-19T08:58:17;96250.59;;;24.67;52.14
50977;BME280;36992;48.200;12.418;2022-08-19T09:01:03;96253.34;;;24.67;51.06
50977;BME280;36992;48.200;12.418;2022-08-19T09:03:31;96260.44;;;24.60;53.87
50977;BME280;36992;48.200;12.418;2022-08-19T09:06:00;96260.03;;;24.58;53.50
50977;BME280;36992;48.200;12.418;2022-08-19T09:08:39;96265.53;;;24.58;52.63
50977;BME280;36992;48.200;12.418;2022-08-19T09:11:09;96265.16;;;24.52;53.17
50977;BME280;36992;48.200;12.418;2022-08-19T09:13:44;96266.75;;;24.50;52.79
50977;BME280;36992;48.200;12.418;2022-08-19T09:16:18;96269.88;;;24.45;54.78
50977;BME280;36992;48.200;12.418;2022-08-19T09:18:48;96274.63;;;24.37;55.06
50977;BME280;36992;48.200;12.418;2022-08-19T09:21:18;96266.78;;;24.28;56.33
50977;BME280;36992;48.200;12.418;2022-08-19T09:23:46;96268.34;;;24.22;54.26
50977;BME280;36992;48.200;12.418;2022-08-19T09:26:14;96268.34;;;24.18;55.30
50977;BME280;36992;48.200;12.418;2022-08-19T09:28:44;96268.34;;;24.18;56.36
50977;BME280;36992;48.200;12.418;2022-08-19T09:31:11;96273.81;;;24.15;55.88
50977;BME280;36992;48.200;12.418;2022-08-19T09:33:38;96264.41;;;24.16;55.56
50977;BME280;36992;48.200;12.418;2022-08-19T09:36:07;96277.38;;;24.19;54.72
50977;BME280;36992;48.200;12.418;2022-08-19T09:38:35;96271.88;;;24.19;55.25
50977;BME280;36992;48.200;12.418;2022-08-19T09:41:03;96277.38;;;24.22;55.24
50977;BME280;36992;48.200;12.418;2022-08-19T09:43:30;96280.13;;;24.26;55.83
50977;BME280;36992;48.200;12.418;2022-08-19T09:46:15;96284.06;;;24.32;55.14
50977;BME280;36992;48.200;12.418;2022-08-19T09:52:03;96287.59;;;24.29;55.22
50977;BME280;36992;48.200;12.418;2022-08-19T09:54:33;96280.13;;;24.26;55.63
50977;BME280;36992;48.200;12.418;2022-08-19T09:57:09;96276.97;;;24.31;56.48
50977;BME280;36992;48.200;12.418;2022-08-19T10:00:07;96275.41;;;24.34;55.23
50977;BME280;36992;48.200;12.418;2022-08-19T10:03:18;96278.16;;;24.34;55.31
50977;BME280;36992;48.200;12.418;2022-08-19T10:06:05;96275.78;;;24.32;55.03
50977;BME280;36992;48.200;12.418;2022-08-19T10:08:49;96271.47;;;24.31;55.79
50977;BME280;36992;48.200;12.418;2022-08-19T10:14:38;96259.69;;;24.42;54.08
50977;BME280;36992;48.200;12.418;2022-08-19T10:17:43;96260.44;;;24.46;54.99
50977;BME280;36992;48.200;12.418;2022-08-19T10:20:23;96254.94;;;24.46;55.97
50977;BME280;36992;48.200;12.418;2022-08-19T10:23:03;96245.50;;;24.61;53.95
50977;BME280;36992;48.200;12.418;2022-08-19T10:25:35;96238.84;;;24.44;55.98
50977;BME280;36992;48.200;12.418;2022-08-19T10:28:09;96243.56;;;24.44;56.07
50977;BME280;36992;48.200;12.418;2022-08-19T10:30:37;96255.75;;;24.43;56.17
50977;BME280;36992;48.200;12.418;2022-08-19T10:33:05;96258.88;;;24.45;58.24
50977;BME280;36992;48.200;12.418;2022-08-19T10:35:34;96258.50;;;24.46;57.05
50977;BME280;36992;48.200;12.418;2022-08-19T10:38:01;96256.53;;;24.47;56.06
50977;BME280;36992;48.200;12.418;2022-08-19T10:40:28;96256.91;;;24.49;57.94
50977;BME280;36992;48.200;12.418;2022-08-19T10:42:55;96253.78;;;24.50;58.01
50977;BME280;36992;48.200;12.418;2022-08-19T10:45:22;96246.28;;;24.55;56.53
50977;BME280;36992;48.200;12.418;2022-08-19T10:47:51;96248.63;;;24.60;57.03
50977;BME280;36992;48.200;12.418;2022-08-19T10:50:18;96239.16;;;24.64;55.23
50977;BME280;36992;48.200;12.418;2022-08-19T10:53:05;96238.78;;;24.70;55.18
50977;BME280;36992;48.200;12.418;2022-08-19T10:55:34;96232.88;;;24.71;55.55
50977;BME280;36992;48.200;12.418;2022-08-19T10:58:20;96226.56;;;24.78;55.48
50977;BME280;36992;48.200;12.418;2022-08-19T11:00:51;96220.66;;;24.83;55.36
50977;BME280;36992;48.200;12.418;2022-08-19T11:03:19;96225.00;;;24.84;54.66
50977;BME280;36992;48.200;12.418;2022-08-19T11:05:46;96235.59;;;24.89;55.41
50977;BME280;36992;48.200;12.418;2022-08-19T11:08:15;96228.91;;;24.98;53.90
50977;BME280;36992;48.200;12.418;2022-08-19T11:10:41;96222.97;;;25.03;53.75
50977;BME280;36992;48.200;12.418;2022-08-19T11:13:09;96217.44;;;25.10;54.11
50977;BME280;36992;48.200;12.418;2022-08-19T11:15:35;96213.06;;;25.16;53.94
50977;BME280;36992;48.200;12.418;2022-08-19T11:18:02;96216.19;;;25.22;54.04
50977;BME280;36992;48.200;12.418;2022-08-19T11:20:30;96224.81;;;25.28;53.50
50977;BME280;36992;48.200;12.418;2022-08-19T11:22:57;96213.78;;;25.31;52.47
50977;BME280;36992;48.200;12.418;2022-08-19T11:25:25;96211.38;;;25.37;53.84
50977;BME280;36992;48.200;12.418;2022-08-19T11:27:51;96216.47;;;25.42;53.25
50977;BME280;36992;48.200;12.418;2022-08-19T11:30:18;96212.53;;;25.43;53.43
50977;BME280;36992;48.200;12.418;2022-08-19T11:32:44;96210.13;;;25.45;53.32
50977;BME280;36992;48.200;12.418;2022-08-19T11:35:11;96208.53;;;25.48;51.58
50977;BME280;36992;48.200;12.418;2022-08-19T11:37:38;96201.06;;;25.49;51.42
50977;BME280;36992;48.200;12.418;2022-08-19T11:40:05;96200.28;;;25.48;51.01
50977;BME280;36992;48.200;12.418;2022-08-19T11:42:33;96199.88;;;25.50;52.08
50977;BME280;36992;48.200;12.418;2022-08-19T11:45:18;96198.69;;;25.51;53.45
50977;BME280;36992;48.200;12.418;2022-08-19T11:47:44;96205.41;;;25.50;53.28
50977;BME280;36992;48.200;12.418;2022-08-19T11:50:11;96212.88;;;25.49;51.48
50977;BME280;36992;48.200;12.418;2022-08-19T11:52:38;96207.78;;;25.48;52.01
50977;BME280;36992;48.200;12.418;2022-08-19T11:55:06;96202.66;;;25.46;51.03
50977;BME280;36992;48.200;12.418;2022-08-19T11:57:34;96203.47;;;25.46;52.02
50977;BME280;36992;48.200;12.418;2022-08-19T12:00:00;96194.38;;;25.46;52.11
50977;BME280;36992;48.200;12.418;2022-08-19T12:02:28;96205.03;;;25.48;51.39
50977;BME280;36992;48.200;12.418;2022-08-19T12:04:54;96194.38;;;25.50;51.81
50977;BME280;36992;48.200;12.418;2022-08-19T12:07:21;96203.44;;;25.54;52.40
50977;BME280;36992;48.200;12.418;2022-08-19T12:09:48;96202.63;;;25.57;52.54
50977;BME280;36992;48.200;12.418;2022-08-19T12:12:14;96201.81;;;25.60;51.56
50977;BME280;36992;48.200;12.418;2022-08-19T12:14:42;96202.97;;;25.66;51.57
50977;BME280;36992;48.200;12.418;2022-08-19T12:17:10;96200.56;;;25.68;52.28
50977;BME280;36992;48.200;12.418;2022-08-19T12:19:38;96197.03;;;25.71;52.49
50977;BME280;36992;48.200;12.418;2022-08-19T12:22:05;96202.50;;;25.75;52.39
50977;BME280;36992;48.200;12.418;2022-08-19T12:24:33;96212.31;;;25.80;51.32
50977;BME280;36992;48.200;12.418;2022-08-19T12:26:59;96207.56;;;25.84;50.83
50977;BME280;36992;48.200;12.418;2022-08-19T12:29:27;96205.53;;;25.88;50.47
50977;BME280;36992;48.200;12.418;2022-08-19T12:31:56;96210.63;;;25.93;50.99
50977;BME280;36992;48.200;12.418;2022-08-19T12:34:27;96205.88;;;25.97;50.23
50977;BME280;36992;48.200;12.418;2022-08-19T12:36:56;96207.81;;;26.00;49.69
50977;BME280;36992;48.200;12.418;2022-08-19T12:39:22;96206.22;;;26.03;48.96
50977;BME280;36992;48.200;12.418;2022-08-19T12:41:49;96208.56;;;26.05;49.08
50977;BME280;36992;48.200;12.418;2022-08-19T12:44:16;96207.00;;;26.04;49.34
50977;BME280;36992;48.200;12.418;2022-08-19T12:46:43;96203.81;;;26.05;49.85
50977;BME280;36992;48.200;12.418;2022-08-19T12:49:11;96199.84;;;26.10;50.30
50977;BME280;36992;48.200;12.418;2022-08-19T12:51:37;96207.72;;;26.15;49.67
50977;BME280;36992;48.200;12.418;2022-08-19T12:54:04;96205.31;;;26.17;49.48
50977;BME280;36992;48.200;12.418;2022-08-19T12:56:31;96207.25;;;26.20;49.21
50977;BME280;36992;48.200;12.418;2022-08-19T12:59:00;96210.00;;;26.28;49.30
50977;BME280;36992;48.200;12.418;2022-08-19T13:01:27;96214.31;;;26.29;49.40
50977;BME280;36992;48.200;12.418;2022-08-19T13:03:57;96213.50;;;26.28;48.32
50977;BME280;36992;48.200;12.418;2022-08-19T13:06:25;96215.88;;;26.30;48.86